sensor_id;sensor_type;location;lat;lon;timestamp;P1;durP1;ratioP1;P2;durP2;ratioP2
64052;SDS011;50299;49.524;8.536;2023-04-12T00:00:38;7.47;;;3.13;;
64052;SDS011;50299;49.524;8.536;2023-04-12T00:03:05;4.72;;;2.42;;
64052;SDS011;50299;49.524;8.536;2023-04-12T00:05:33;5.15;;;2.63;;
64052;SDS011;50299;49.524;8.536;2023-04-12T00:07:59;4.72;;;3.38;;
64052;SDS011;50299;49.524;8.536;2023-04-12T00:10:29;6.13;;;3.13;;
64052;SDS011;50299;49.524;8.536;2023-04-12T00:12:56;6.28;;;4.05;;
64052;SDS011;50299;49.524;8.536;2023-04-12T00:15:22;7.60;;;3.35;;
64052;SDS011;50299;49.524;8.536;2023-04-12T00:17:48;5.97;;;3.28;;
64052;SDS011;50299;49.524;8.536;2023-04-12T00:20:15;7.72;;;3.13;;
64052;SDS011;50299;49.524;8.536;2023-04-12T00:22:41;6.75;;;3.70;;
64052;SDS011;50299;49.524;8.536;2023-04-12T00:27:37;4.70;;;3.42;;
64052;SDS011;50299;49.524;8.536;2023-04-12T00:30:04;5.70;;;3.92;;
64052;SDS011;50299;49.524;8.536;2023-04-12T00:32:34;6.82;;;2.92;;
64052;SDS011;50299;49.524;8.536;2023-04-12T00:35:01;3.20;;;3.00;;
64052;SDS011;50299;49.524;8.536;2023-04-12T00:37:27;4.80;;;3.30;;
64052;SDS011;50299;49.524;8.536;2023-04-12T00:39:53;7.10;;;2.95;;
64052;SDS011;50299;49.524;8.536;2023-04-12T00:42:20;4.90;;;3.28;;
64052;SDS011;50299;49.524;8.536;2023-04-12T00:44:46;7.53;;;3.60;;
64052;SDS011;50299;49.524;8.536;2023-04-12T00:47:12;4.28;;;3.63;;
64052;SDS011;50299;49.524;8.536;2023-04-12T00:49:39;6.93;;;3.83;;
64052;SDS011;50299;49.524;8.536;2023-04-12T00:52:06;3.92;;;3.38;;
64052;SDS011;50299;49.524;8.536;2023-04-12T00:54:35;5.50;;;3.50;;
64052;SDS011;50299;49.524;8.536;2023-04-12T00:57:02;9.60;;;4.22;;
64052;SDS011;50299;49.524;8.536;2023-04-12T00:59:29;7.00;;;3.40;;
64052;SDS011;50299;49.524;8.536;2023-04-12T01:01:55;6.30;;;4.18;;
64052;SDS011;50299;49.524;8.536;2023-04-12T01:04:23;7.40;;;3.58;;
64052;SDS011;50299;49.524;8.536;2023-04-12T01:12:24;5.05;;;4.03;;
64052;SDS011;50299;49.524;8.536;2023-04-12T01:15:03;8.10;;;3.40;;
64052;SDS011;50299;49.524;8.536;2023-04-12T01:17:46;5.95;;;3.70;;
64052;SDS011;50299;49.524;8.536;2023-04-12T01:20:30;6.35;;;2.60;;
64052;SDS011;50299;49.524;8.536;2023-04-12T01:23:05;5.72;;;3.38;;
64052;SDS011;50299;49.524;8.536;2023-04-12T01:28:19;6.75;;;4.03;;
64052;SDS011;50299;49.524;8.536;2023-04-12T01:33:19;5.45;;;3.53;;
64052;SDS011;50299;49.524;8.536;2023-04-12T01:35:45;5.00;;;3.42;;
64052;SDS011;50299;49.524;8.536;2023-04-12T01:38:14;5.90;;;2.67;;
64052;SDS011;50299;49.524;8.536;2023-04-12T01:40:41;5.80;;;3.90;;
64052;SDS011;50299;49.524;8.536;2023-04-12T01:45:36;5.80;;;2.80;;
64052;SDS011;50299;49.524;8.536;2023-04-12T01:48:06;6.65;;;3.92;;
64052;SDS011;50299;49.524;8.536;2023-04-12T01:53:11;5.43;;;3.00;;
64052;SDS011;50299;49.524;8.536;2023-04-12T01:55:43;5.53;;;3.22;;
64052;SDS011;50299;49.524;8.536;2023-04-12T01:58:13;7.13;;;3.50;;
64052;SDS011;50299;49.524;8.536;2023-04-12T02:00:45;4.43;;;3.45;;
64052;SDS011;50299;49.524;8.536;2023-04-12T02:03:12;5.65;;;3.90;;
64052;SDS011;50299;49.524;8.536;2023-04-12T02:05:39;4.40;;;3.10;;
64052;SDS011;50299;49.524;8.536;2023-04-12T02:08:06;4.35;;;3.58;;
64052;SDS011;50299;49.524;8.536;2023-04-12T02:10:33;4.15;;;3.55;;
64052;SDS011;50299;49.524;8.536;2023-04-12T02:13:01;4.07;;;3.67;;
64052;SDS011;50299;49.524;8.536;2023-04-12T02:15:29;6.72;;;4.05;;
64052;SDS011;50299;49.524;8.536;2023-04-12T02:17:55;4.72;;;3.75;;
64052;SDS011;50299;49.524;8.536;2023-04-12T02:20:24;3.45;;;2.25;;
64052;SDS011;50299;49.524;8.536;2023-04-12T02:22:51;5.03;;;3.75;;
64052;SDS011;50299;49.524;8.536;2023-04-12T02:25:19;6.30;;;3.80;;
64052;SDS011;50299;49.524;8.536;2023-04-12T02:27:49;5.00;;;4.20;;
64052;SDS011;50299;49.524;8.536;2023-04-12T02:30:15;5.13;;;4.20;;
64052;SDS011;50299;49.524;8.536;2023-04-12T02:32:42;7.03;;;4.68;;
64052;SDS011;50299;49.524;8.536;2023-04-12T02:37:39;5.70;;;5.00;;
64052;SDS011;50299;49.524;8.536;2023-04-12T02:40:06;8.38;;;4.70;;
64052;SDS011;50299;49.524;8.536;2023-04-12T02:42:35;6.63;;;3.95;;
64052;SDS011;50299;49.524;8.536;2023-04-12T02:45:02;5.93;;;4.30;;
64052;SDS011;50299;49.524;8.536;2023-04-12T02:47:29;4.85;;;3.65;;
64052;SDS011;50299;49.524;8.536;2023-04-12T02:49:56;5.22;;;3.20;;
64052;SDS011;50299;49.524;8.536;2023-04-12T02:52:22;3.95;;;3.58;;
64052;SDS011;50299;49.524;8.536;2023-04-12T02:54:49;4.15;;;3.47;;
64052;SDS011;50299;49.524;8.536;2023-04-12T02:57:16;5.65;;;3.40;;
64052;SDS011;50299;49.524;8.536;2023-04-12T02:59:43;5.22;;;4.00;;
64052;SDS011;50299;49.524;8.536;2023-04-12T03:02:09;4.18;;;3.40;;
64052;SDS011;50299;49.524;8.536;2023-04-12T03:04:36;6.05;;;2.92;;
64052;SDS011;50299;49.524;8.536;2023-04-12T03:07:05;5.72;;;3.45;;
64052;SDS011;50299;49.524;8.536;2023-04-12T03:09:32;4.05;;;3.25;;
64052;SDS011;50299;49.524;8.536;2023-04-12T03:11:58;4.88;;;3.47;;
64052;SDS011;50299;49.524;8.536;2023-04-12T03:14:24;4.45;;;3.72;;
64052;SDS011;50299;49.524;8.536;2023-04-12T03:16:51;3.90;;;2.85;;
64052;SDS011;50299;49.524;8.536;2023-04-12T03:19:18;3.92;;;3.53;;
64052;SDS011;50299;49.524;8.536;2023-04-12T03:21:44;3.67;;;3.33;;
64052;SDS011;50299;49.524;8.536;2023-04-12T03:24:12;6.40;;;3.58;;
64052;SDS011;50299;49.524;8.536;2023-04-12T03:26:38;5.15;;;3.10;;
64052;SDS011;50299;49.524;8.536;2023-04-12T03:29:06;3.80;;;3.47;;
64052;SDS011;50299;49.524;8.536;2023-04-12T03:31:36;5.00;;;2.92;;
64052;SDS011;50299;49.524;8.536;2023-04-12T03:34:02;6.25;;;3.75;;
64052;SDS011;50299;49.524;8.536;2023-04-12T03:36:29;5.00;;;3.97;;
64052;SDS011;50299;49.524;8.536;2023-04-12T03:38:55;6.40;;;4.03;;
64052;SDS011;50299;49.524;8.536;2023-04-12T03:41:21;3.80;;;3.28;;
64052;SDS011;50299;49.524;8.536;2023-04-12T03:43:48;4.43;;;3.15;;
64052;SDS011;50299;49.524;8.536;2023-04-12T03:46:15;4.97;;;3.42;;
64052;SDS011;50299;49.524;8.536;2023-04-12T03:48:41;4.25;;;3.03;;
64052;SDS011;50299;49.524;8.536;2023-04-12T03:51:08;5.70;;;2.60;;
64052;SDS011;50299;49.524;8.536;2023-04-12T03:53:37;5.25;;;2.60;;
64052;SDS011;50299;49.524;8.536;2023-04-12T03:56:04;7.05;;;3.50;;
64052;SDS011;50299;49.524;8.536;2023-04-12T03:58:30;6.18;;;3.40;;
64052;SDS011;50299;49.524;8.536;2023-04-12T04:01:03;8.77;;;2.88;;
64052;SDS011;50299;49.524;8.536;2023-04-12T04:03:31;4.85;;;3.35;;
64052;SDS011;50299;49.524;8.536;2023-04-12T04:08:27;4.97;;;3.28;;
64052;SDS011;50299;49.524;8.536;2023-04-12T04:10:57;5.32;;;3.17;;
64052;SDS011;50299;49.524;8.536;2023-04-12T04:13:27;7.47;;;3.67;;
64052;SDS011;50299;49.524;8.536;2023-04-12T04:16:04;5.22;;;2.92;;
64052;SDS011;50299;49.524;8.536;2023-04-12T04:18:32;5.10;;;3.35;;
64052;SDS011;50299;49.524;8.536;2023-04-12T04:20:59;6.18;;;3.50;;
64052;SDS011;50299;49.524;8.536;2023-04-12T04:23:26;4.70;;;3.10;;
64052;SDS011;50299;49.524;8.536;2023-04-12T04:25:55;8.52;;;3.83;;
64052;SDS011;50299;49.524;8.536;2023-04-12T04:28:22;8.00;;;4.40;;
64052;SDS011;50299;49.524;8.536;2023-04-12T04:30:48;7.85;;;4.40;;
64052;SDS011;50299;49.524;8.536;2023-04-12T04:33:16;7.32;;;3.53;;
64052;SDS011;50299;49.524;8.536;2023-04-12T04:35:44;7.43;;;4.32;;
64052;SDS011;50299;49.524;8.536;2023-04-12T04:38:11;5.93;;;4.00;;
64052;SDS011;50299;49.524;8.536;2023-04-12T04:40:38;6.50;;;4.45;;
64052;SDS011;50299;49.524;8.536;2023-04-12T04:43:04;6.25;;;4.07;;
64052;SDS011;50299;49.524;8.536;2023-04-12T04:45:33;5.35;;;4.00;;
64052;SDS011;50299;49.524;8.536;2023-04-12T04:48:01;4.68;;;2.78;;
64052;SDS011;50299;49.524;8.536;2023-04-12T04:50:28;10.23;;;4.13;;
64052;SDS011;50299;49.524;8.536;2023-04-12T04:52:55;5.60;;;3.60;;
64052;SDS011;50299;49.524;8.536;2023-04-12T04:55:22;6.38;;;4.22;;
64052;SDS011;50299;49.524;8.536;2023-04-12T04:57:50;7.50;;;4.72;;
64052;SDS011;50299;49.524;8.536;2023-04-12T05:00:17;7.25;;;4.55;;
64052;SDS011;50299;49.524;8.536;2023-04-12T05:02:43;8.38;;;5.20;;
64052;SDS011;50299;49.524;8.536;2023-04-12T05:05:11;5.47;;;4.32;;
64052;SDS011;50299;49.524;8.536;2023-04-12T05:07:48;6.28;;;4.07;;
64052;SDS011;50299;49.524;8.536;2023-04-12T05:10:14;3.55;;;3.15;;
64052;SDS011;50299;49.524;8.536;2023-04-12T05:12:40;4.38;;;2.97;;
64052;SDS011;50299;49.524;8.536;2023-04-12T05:15:07;5.00;;;3.33;;
64052;SDS011;50299;49.524;8.536;2023-04-12T05:17:37;4.95;;;3.20;;
64052;SDS011;50299;49.524;8.536;2023-04-12T05:20:04;4.28;;;3.53;;
64052;SDS011;50299;49.524;8.536;2023-04-12T05:25:03;5.80;;;2.80;;
64052;SDS011;50299;49.524;8.536;2023-04-12T05:27:29;5.38;;;3.88;;
64052;SDS011;50299;49.524;8.536;2023-04-12T05:29:56;4.50;;;3.25;;
64052;SDS011;50299;49.524;8.536;2023-04-12T05:32:23;4.72;;;3.13;;
64052;SDS011;50299;49.524;8.536;2023-04-12T05:34:50;3.90;;;3.53;;
64052;SDS011;50299;49.524;8.536;2023-04-12T05:37:17;4.80;;;3.72;;
64052;SDS011;50299;49.524;8.536;2023-04-12T05:39:43;4.20;;;3.45;;
64052;SDS011;50299;49.524;8.536;2023-04-12T05:42:10;5.80;;;4.30;;
64052;SDS011;50299;49.524;8.536;2023-04-12T05:44:37;4.00;;;3.42;;
64052;SDS011;50299;49.524;8.536;2023-04-12T05:47:04;4.03;;;3.38;;
64052;SDS011;50299;49.524;8.536;2023-04-12T05:49:30;4.10;;;3.70;;
64052;SDS011;50299;49.524;8.536;2023-04-12T05:51:57;6.38;;;3.97;;
64052;SDS011;50299;49.524;8.536;2023-04-12T05:54:24;4.35;;;3.47;;
64052;SDS011;50299;49.524;8.536;2023-04-12T05:56:50;4.78;;;3.47;;
64052;SDS011;50299;49.524;8.536;2023-04-12T05:59:19;7.35;;;4.55;;
64052;SDS011;50299;49.524;8.536;2023-04-12T06:01:46;4.55;;;3.78;;
64052;SDS011;50299;49.524;8.536;2023-04-12T06:04:12;5.10;;;3.83;;
64052;SDS011;50299;49.524;8.536;2023-04-12T06:06:40;7.38;;;4.22;;
64052;SDS011;50299;49.524;8.536;2023-04-12T06:09:06;4.07;;;3.58;;
64052;SDS011;50299;49.524;8.536;2023-04-12T06:11:33;3.20;;;2.85;;
64052;SDS011;50299;49.524;8.536;2023-04-12T06:13:59;3.78;;;2.90;;
64052;SDS011;50299;49.524;8.536;2023-04-12T06:16:26;4.22;;;2.95;;
64052;SDS011;50299;49.524;8.536;2023-04-12T06:18:53;6.80;;;4.47;;
64052;SDS011;50299;49.524;8.536;2023-04-12T06:21:19;5.15;;;2.95;;
64052;SDS011;50299;49.524;8.536;2023-04-12T06:23:46;5.88;;;4.03;;
64052;SDS011;50299;49.524;8.536;2023-04-12T06:26:12;3.97;;;2.75;;
64052;SDS011;50299;49.524;8.536;2023-04-12T06:28:38;4.60;;;3.65;;
64052;SDS011;50299;49.524;8.536;2023-04-12T06:31:06;7.82;;;4.35;;
64052;SDS011;50299;49.524;8.536;2023-04-12T06:33:32;5.93;;;4.13;;
64052;SDS011;50299;49.524;8.536;2023-04-12T06:36:08;3.08;;;2.85;;
64052;SDS011;50299;49.524;8.536;2023-04-12T06:38:34;4.63;;;4.22;;
64052;SDS011;50299;49.524;8.536;2023-04-12T06:41:01;7.20;;;3.67;;
64052;SDS011;50299;49.524;8.536;2023-04-12T06:43:28;5.15;;;3.88;;
64052;SDS011;50299;49.524;8.536;2023-04-12T06:45:54;4.55;;;3.92;;
64052;SDS011;50299;49.524;8.536;2023-04-12T06:48:22;4.78;;;3.90;;
64052;SDS011;50299;49.524;8.536;2023-04-12T06:50:48;5.35;;;4.05;;
64052;SDS011;50299;49.524;8.536;2023-04-12T06:53:14;6.03;;;4.15;;
64052;SDS011;50299;49.524;8.536;2023-04-12T06:55:41;4.40;;;2.95;;
64052;SDS011;50299;49.524;8.536;2023-04-12T06:58:07;4.13;;;3.70;;
64052;SDS011;50299;49.524;8.536;2023-04-12T07:00:33;4.88;;;4.43;;
64052;SDS011;50299;49.524;8.536;2023-04-12T07:03:00;5.75;;;3.50;;
64052;SDS011;50299;49.524;8.536;2023-04-12T07:05:27;5.78;;;3.30;;
64052;SDS011;50299;49.524;8.536;2023-04-12T07:07:53;4.38;;;3.10;;
64052;SDS011;50299;49.524;8.536;2023-04-12T07:10:19;7.30;;;4.50;;
64052;SDS011;50299;49.524;8.536;2023-04-12T07:12:48;6.20;;;4.38;;
64052;SDS011;50299;49.524;8.536;2023-04-12T07:15:15;4.07;;;3.30;;
64052;SDS011;50299;49.524;8.536;2023-04-12T07:17:41;4.72;;;2.97;;
64052;SDS011;50299;49.524;8.536;2023-04-12T07:20:08;4.20;;;3.85;;
64052;SDS011;50299;49.524;8.536;2023-04-12T07:22:34;5.40;;;4.45;;
64052;SDS011;50299;49.524;8.536;2023-04-12T07:25:01;4.43;;;3.88;;
64052;SDS011;50299;49.524;8.536;2023-04-12T07:27:27;4.60;;;3.45;;
64052;SDS011;50299;49.524;8.536;2023-04-12T07:29:54;5.15;;;3.72;;
64052;SDS011;50299;49.524;8.536;2023-04-12T07:32:20;4.75;;;3.63;;
64052;SDS011;50299;49.524;8.536;2023-04-12T07:34:48;4.28;;;3.22;;
64052;SDS011;50299;49.524;8.536;2023-04-12T07:37:14;3.83;;;3.53;;
64052;SDS011;50299;49.524;8.536;2023-04-12T07:39:42;4.15;;;3.28;;
64052;SDS011;50299;49.524;8.536;2023-04-12T07:42:09;4.35;;;2.97;;
64052;SDS011;50299;49.524;8.536;2023-04-12T07:44:35;3.88;;;2.83;;
64052;SDS011;50299;49.524;8.536;2023-04-12T07:47:04;3.45;;;2.50;;
64052;SDS011;50299;49.524;8.536;2023-04-12T07:49:30;5.43;;;3.90;;
64052;SDS011;50299;49.524;8.536;2023-04-12T07:51:57;5.70;;;2.88;;
64052;SDS011;50299;49.524;8.536;2023-04-12T07:54:25;4.57;;;2.92;;
64052;SDS011;50299;49.524;8.536;2023-04-12T07:57:02;4.43;;;3.58;;
64052;SDS011;50299;49.524;8.536;2023-04-12T07:59:29;3.58;;;2.47;;
64052;SDS011;50299;49.524;8.536;2023-04-12T08:01:56;3.53;;;3.22;;
64052;SDS011;50299;49.524;8.536;2023-04-12T08:04:23;4.57;;;3.60;;
64052;SDS011;50299;49.524;8.536;2023-04-12T08:06:50;3.85;;;3.13;;
64052;SDS011;50299;49.524;8.536;2023-04-12T08:09:17;6.38;;;3.03;;
64052;SDS011;50299;49.524;8.536;2023-04-12T08:11:43;3.80;;;2.30;;
64052;SDS011;50299;49.524;8.536;2023-04-12T08:14:09;3.92;;;3.40;;
64052;SDS011;50299;49.524;8.536;2023-04-12T08:16:36;3.75;;;3.45;;
64052;SDS011;50299;49.524;8.536;2023-04-12T08:19:02;4.32;;;3.65;;
64052;SDS011;50299;49.524;8.536;2023-04-12T08:21:29;3.53;;;2.40;;
64052;SDS011;50299;49.524;8.536;2023-04-12T08:23:55;3.58;;;2.75;;
64052;SDS011;50299;49.524;8.536;2023-04-12T08:26:22;4.20;;;3.60;;
64052;SDS011;50299;49.524;8.536;2023-04-12T08:28:49;5.28;;;3.42;;
64052;SDS011;50299;49.524;8.536;2023-04-12T08:31:15;3.38;;;3.08;;
64052;SDS011;50299;49.524;8.536;2023-04-12T08:33:43;4.82;;;3.30;;
64052;SDS011;50299;49.524;8.536;2023-04-12T08:36:11;3.75;;;3.05;;
64052;SDS011;50299;49.524;8.536;2023-04-12T08:38:38;4.45;;;2.83;;
64052;SDS011;50299;49.524;8.536;2023-04-12T08:41:11;4.72;;;3.42;;
64052;SDS011;50299;49.524;8.536;2023-04-12T08:43:40;4.25;;;3.17;;
64052;SDS011;50299;49.524;8.536;2023-04-12T08:46:09;4.07;;;3.47;;
64052;SDS011;50299;49.524;8.536;2023-04-12T08:48:38;4.15;;;3.38;;
64052;SDS011;50299;49.524;8.536;2023-04-12T08:51:05;3.45;;;2.92;;
64052;SDS011;50299;49.524;8.536;2023-04-12T08:53:32;4.43;;;3.33;;
64052;SDS011;50299;49.524;8.536;2023-04-12T08:55:59;3.88;;;3.50;;
64052;SDS011;50299;49.524;8.536;2023-04-12T08:58:25;4.85;;;3.20;;
64052;SDS011;50299;49.524;8.536;2023-04-12T09:00:52;5.40;;;3.75;;
64052;SDS011;50299;49.524;8.536;2023-04-12T09:03:19;4.13;;;3.40;;
64052;SDS011;50299;49.524;8.536;2023-04-12T09:05:46;4.07;;;3.67;;
64052;SDS011;50299;49.524;8.536;2023-04-12T09:08:13;4.22;;;3.30;;
64052;SDS011;50299;49.524;8.536;2023-04-12T09:10:39;3.78;;;3.33;;
64052;SDS011;50299;49.524;8.536;2023-04-12T09:13:07;5.60;;;3.33;;
64052;SDS011;50299;49.524;8.536;2023-04-12T09:15:34;6.00;;;3.53;;
64052;SDS011;50299;49.524;8.536;2023-04-12T09:20:34;4.13;;;3.72;;
64052;SDS011;50299;49.524;8.536;2023-04-12T09:23:18;5.18;;;3.85;;
64052;SDS011;50299;49.524;8.536;2023-04-12T09:25:46;4.20;;;2.95;;
64052;SDS011;50299;49.524;8.536;2023-04-12T09:30:49;5.05;;;3.17;;
64052;SDS011;50299;49.524;8.536;2023-04-12T09:33:18;7.13;;;3.53;;
64052;SDS011;50299;49.524;8.536;2023-04-12T09:35:46;4.65;;;3.60;;
64052;SDS011;50299;49.524;8.536;2023-04-12T09:38:13;3.63;;;2.90;;
64052;SDS011;50299;49.524;8.536;2023-04-12T09:40:40;5.97;;;3.50;;
64052;SDS011;50299;49.524;8.536;2023-04-12T09:43:07;5.75;;;4.18;;
64052;SDS011;50299;49.524;8.536;2023-04-12T09:45:34;6.78;;;3.65;;
64052;SDS011;50299;49.524;8.536;2023-04-12T09:48:04;6.03;;;3.75;;
64052;SDS011;50299;49.524;8.536;2023-04-12T09:50:31;5.60;;;3.20;;
64052;SDS011;50299;49.524;8.536;2023-04-12T09:52:59;7.47;;;3.70;;
64052;SDS011;50299;49.524;8.536;2023-04-12T09:55:28;7.30;;;3.42;;
64052;SDS011;50299;49.524;8.536;2023-04-12T09:58:00;6.05;;;4.05;;
64052;SDS011;50299;49.524;8.536;2023-04-12T10:00:29;5.00;;;4.05;;
64052;SDS011;50299;49.524;8.536;2023-04-12T10:02:57;8.93;;;4.38;;
64052;SDS011;50299;49.524;8.536;2023-04-12T10:05:24;4.78;;;3.70;;
64052;SDS011;50299;49.524;8.536;2023-04-12T10:07:53;5.57;;;3.45;;
64052;SDS011;50299;49.524;8.536;2023-04-12T10:10:21;6.43;;;4.43;;
64052;SDS011;50299;49.524;8.536;2023-04-12T10:12:48;4.78;;;4.22;;
64052;SDS011;50299;49.524;8.536;2023-04-12T10:15:15;7.40;;;4.57;;
64052;SDS011;50299;49.524;8.536;2023-04-12T10:17:44;4.72;;;4.30;;
64052;SDS011;50299;49.524;8.536;2023-04-12T10:20:13;5.88;;;3.83;;
64052;SDS011;50299;49.524;8.536;2023-04-12T10:22:41;7.18;;;4.15;;
64052;SDS011;50299;49.524;8.536;2023-04-12T10:25:13;5.15;;;4.57;;
64052;SDS011;50299;49.524;8.536;2023-04-12T10:27:44;5.75;;;3.90;;
64052;SDS011;50299;49.524;8.536;2023-04-12T10:30:24;8.10;;;4.75;;
64052;SDS011;50299;49.524;8.536;2023-04-12T10:35:28;6.05;;;4.20;;
64052;SDS011;50299;49.524;8.536;2023-04-12T10:37:58;7.47;;;4.50;;
64052;SDS011;50299;49.524;8.536;2023-04-12T10:40:26;6.07;;;3.97;;
64052;SDS011;50299;49.524;8.536;2023-04-12T10:43:39;9.15;;;5.43;;
64052;SDS011;50299;49.524;8.536;2023-04-12T10:45:53;6.18;;;4.50;;
64052;SDS011;50299;49.524;8.536;2023-04-12T10:51:21;6.40;;;4.90;;
64052;SDS011;50299;49.524;8.536;2023-04-12T10:56:44;7.88;;;5.05;;
64052;SDS011;50299;49.524;8.536;2023-04-12T10:59:12;9.02;;;4.50;;
64052;SDS011;50299;49.524;8.536;2023-04-12T11:01:39;5.75;;;4.65;;
64052;SDS011;50299;49.524;8.536;2023-04-12T11:04:14;7.07;;;4.53;;
64052;SDS011;50299;49.524;8.536;2023-04-12T11:14:44;6.97;;;5.10;;
64052;SDS011;50299;49.524;8.536;2023-04-12T11:22:14;5.10;;;4.13;;
64052;SDS011;50299;49.524;8.536;2023-04-12T11:24:49;5.63;;;3.53;;
64052;SDS011;50299;49.524;8.536;2023-04-12T11:27:18;6.22;;;4.82;;
64052;SDS011;50299;49.524;8.536;2023-04-12T11:29:49;6.53;;;4.78;;
64052;SDS011;50299;49.524;8.536;2023-04-12T11:32:17;5.22;;;4.63;;
64052;SDS011;50299;49.524;8.536;2023-04-12T11:34:45;6.10;;;4.47;;
64052;SDS011;50299;49.524;8.536;2023-04-12T11:37:12;5.25;;;4.20;;
64052;SDS011;50299;49.524;8.536;2023-04-12T11:39:40;5.72;;;3.50;;
64052;SDS011;50299;49.524;8.536;2023-04-12T11:42:14;5.45;;;3.90;;
64052;SDS011;50299;49.524;8.536;2023-04-12T11:44:46;3.90;;;3.40;;
64052;SDS011;50299;49.524;8.536;2023-04-12T11:47:24;5.32;;;3.90;;
64052;SDS011;50299;49.524;8.536;2023-04-12T11:49:56;5.68;;;4.10;;
64052;SDS011;50299;49.524;8.536;2023-04-12T11:52:27;5.68;;;3.17;;
64052;SDS011;50299;49.524;8.536;2023-04-12T11:54:59;5.07;;;3.33;;
64052;SDS011;50299;49.524;8.536;2023-04-12T11:59:55;4.40;;;3.83;;
64052;SDS011;50299;49.524;8.536;2023-04-12T12:02:23;3.92;;;3.30;;
64052;SDS011;50299;49.524;8.536;2023-04-12T12:04:57;4.20;;;3.00;;
64052;SDS011;50299;49.524;8.536;2023-04-12T12:07:24;3.63;;;3.33;;
64052;SDS011;50299;49.524;8.536;2023-04-12T12:09:51;3.67;;;2.80;;
64052;SDS011;50299;49.524;8.536;2023-04-12T12:12:17;3.95;;;3.30;;
64052;SDS011;50299;49.524;8.536;2023-04-12T12:14:44;4.10;;;2.90;;
64052;SDS011;50299;49.524;8.536;2023-04-12T12:17:13;4.35;;;3.15;;
64052;SDS011;50299;49.524;8.536;2023-04-12T12:19:41;5.55;;;3.97;;
64052;SDS011;50299;49.524;8.536;2023-04-12T12:22:13;4.10;;;2.97;;
64052;SDS011;50299;49.524;8.536;2023-04-12T12:24:59;7.53;;;3.90;;
64052;SDS011;50299;49.524;8.536;2023-04-12T12:29:58;4.07;;;3.40;;
64052;SDS011;50299;49.524;8.536;2023-04-12T12:32:30;3.20;;;2.60;;
64052;SDS011;50299;49.524;8.536;2023-04-12T12:34:58;3.72;;;3.03;;
64052;SDS011;50299;49.524;8.536;2023-04-12T12:37:25;7.18;;;4.03;;
64052;SDS011;50299;49.524;8.536;2023-04-12T12:40:06;5.88;;;2.83;;
64052;SDS011;50299;49.524;8.536;2023-04-12T12:42:36;4.95;;;3.50;;
64052;SDS011;50299;49.524;8.536;2023-04-12T12:45:08;3.30;;;3.00;;
64052;SDS011;50299;49.524;8.536;2023-04-12T12:47:44;5.15;;;3.42;;
64052;SDS011;50299;49.524;8.536;2023-04-12T12:50:12;7.82;;;3.50;;
64052;SDS011;50299;49.524;8.536;2023-04-12T12:52:39;4.97;;;3.30;;
64052;SDS011;50299;49.524;8.536;2023-04-12T12:55:05;3.55;;;3.25;;
64052;SDS011;50299;49.524;8.536;2023-04-12T12:57:32;4.60;;;3.33;;
64052;SDS011;50299;49.524;8.536;2023-04-12T13:00:00;3.25;;;2.80;;
64052;SDS011;50299;49.524;8.536;2023-04-12T13:02:27;4.30;;;2.55;;
64052;SDS011;50299;49.524;8.536;2023-04-12T13:04:53;3.30;;;2.60;;
64052;SDS011;50299;49.524;8.536;2023-04-12T13:07:20;5.15;;;3.22;;
64052;SDS011;50299;49.524;8.536;2023-04-12T13:09:46;3.28;;;2.97;;
64052;SDS011;50299;49.524;8.536;2023-04-12T13:12:13;3.70;;;3.38;;
64052;SDS011;50299;49.524;8.536;2023-04-12T13:14:42;5.10;;;3.60;;
64052;SDS011;50299;49.524;8.536;2023-04-12T13:17:08;5.00;;;3.47;;
64052;SDS011;50299;49.524;8.536;2023-04-12T13:19:34;5.28;;;3.20;;
64052;SDS011;50299;49.524;8.536;2023-04-12T13:22:01;5.07;;;3.65;;
64052;SDS011;50299;49.524;8.536;2023-04-12T13:24:27;4.20;;;3.42;;
64052;SDS011;50299;49.524;8.536;2023-04-12T13:26:54;5.72;;;3.38;;
64052;SDS011;50299;49.524;8.536;2023-04-12T13:29:20;3.53;;;3.17;;
64052;SDS011;50299;49.524;8.536;2023-04-12T13:31:46;5.28;;;4.10;;
64052;SDS011;50299;49.524;8.536;2023-04-12T13:34:13;3.63;;;2.45;;
64052;SDS011;50299;49.524;8.536;2023-04-12T13:36:39;3.85;;;2.92;;
64052;SDS011;50299;49.524;8.536;2023-04-12T13:39:06;4.30;;;3.33;;
64052;SDS011;50299;49.524;8.536;2023-04-12T13:41:32;5.28;;;3.25;;
64052;SDS011;50299;49.524;8.536;2023-04-12T13:43:59;4.78;;;3.63;;
64052;SDS011;50299;49.524;8.536;2023-04-12T13:46:26;6.43;;;4.60;;
64052;SDS011;50299;49.524;8.536;2023-04-12T13:48:53;6.78;;;3.65;;
64052;SDS011;50299;49.524;8.536;2023-04-12T13:51:19;5.13;;;3.95;;
64052;SDS011;50299;49.524;8.536;2023-04-12T13:53:46;5.10;;;3.72;;
64052;SDS011;50299;49.524;8.536;2023-04-12T13:56:14;5.25;;;3.00;;
64052;SDS011;50299;49.524;8.536;2023-04-12T13:58:43;4.32;;;3.00;;
64052;SDS011;50299;49.524;8.536;2023-04-12T14:01:10;4.57;;;3.60;;
64052;SDS011;50299;49.524;8.536;2023-04-12T14:03:36;6.60;;;3.55;;
64052;SDS011;50299;49.524;8.536;2023-04-12T14:06:03;6.55;;;3.03;;
64052;SDS011;50299;49.524;8.536;2023-04-12T14:08:29;3.10;;;2.90;;
64052;SDS011;50299;49.524;8.536;2023-04-12T14:10:56;4.18;;;2.78;;
64052;SDS011;50299;49.524;8.536;2023-04-12T14:13:23;4.40;;;2.80;;
64052;SDS011;50299;49.524;8.536;2023-04-12T14:15:51;2.95;;;2.20;;
64052;SDS011;50299;49.524;8.536;2023-04-12T14:18:19;3.92;;;2.78;;
64052;SDS011;50299;49.524;8.536;2023-04-12T14:20:49;4.35;;;2.90;;
64052;SDS011;50299;49.524;8.536;2023-04-12T14:23:17;4.82;;;3.17;;
64052;SDS011;50299;49.524;8.536;2023-04-12T14:25:44;4.20;;;2.63;;
64052;SDS011;50299;49.524;8.536;2023-04-12T14:28:10;4.60;;;3.03;;
64052;SDS011;50299;49.524;8.536;2023-04-12T14:30:42;5.55;;;2.50;;
64052;SDS011;50299;49.524;8.536;2023-04-12T14:33:08;1.67;;;1.58;;
64052;SDS011;50299;49.524;8.536;2023-04-12T14:35:35;2.03;;;1.20;;
64052;SDS011;50299;49.524;8.536;2023-04-12T14:38:02;1.42;;;1.33;;
64052;SDS011;50299;49.524;8.536;2023-04-12T14:40:29;2.15;;;1.00;;
64052;SDS011;50299;49.524;8.536;2023-04-12T14:42:56;1.65;;;1.55;;
64052;SDS011;50299;49.524;8.536;2023-04-12T14:45:22;1.73;;;1.50;;
64052;SDS011;50299;49.524;8.536;2023-04-12T14:47:49;1.20;;;0.82;;
64052;SDS011;50299;49.524;8.536;2023-04-12T14:50:15;1.60;;;1.50;;
64052;SDS011;50299;49.524;8.536;2023-04-12T14:52:42;2.10;;;1.77;;
64052;SDS011;50299;49.524;8.536;2023-04-12T14:55:08;2.70;;;0.85;;
64052;SDS011;50299;49.524;8.536;2023-04-12T14:57:35;2.50;;;1.73;;
64052;SDS011;50299;49.524;8.536;2023-04-12T15:00:02;1.67;;;1.58;;
64052;SDS011;50299;49.524;8.536;2023-04-12T15:02:31;3.30;;;1.45;;
64052;SDS011;50299;49.524;8.536;2023-04-12T15:04:58;2.05;;;1.70;;
64052;SDS011;50299;49.524;8.536;2023-04-12T15:07:29;1.33;;;1.33;;
64052;SDS011;50299;49.524;8.536;2023-04-12T15:09:55;1.30;;;1.30;;
64052;SDS011;50299;49.524;8.536;2023-04-12T15:12:23;1.30;;;1.30;;
64052;SDS011;50299;49.524;8.536;2023-04-12T15:14:50;1.55;;;1.45;;
64052;SDS011;50299;49.524;8.536;2023-04-12T15:17:19;1.88;;;1.27;;
64052;SDS011;50299;49.524;8.536;2023-04-12T15:19:45;1.48;;;1.38;;
64052;SDS011;50299;49.524;8.536;2023-04-12T15:22:12;1.55;;;1.40;;
64052;SDS011;50299;49.524;8.536;2023-04-12T15:24:38;1.70;;;1.60;;
64052;SDS011;50299;49.524;8.536;2023-04-12T15:27:04;0.90;;;0.90;;
64052;SDS011;50299;49.524;8.536;2023-04-12T15:29:32;1.58;;;1.48;;
64052;SDS011;50299;49.524;8.536;2023-04-12T15:31:59;1.73;;;1.40;;
64052;SDS011;50299;49.524;8.536;2023-04-12T15:34:26;1.77;;;1.08;;
64052;SDS011;50299;49.524;8.536;2023-04-12T15:36:53;1.33;;;1.17;;
64052;SDS011;50299;49.524;8.536;2023-04-12T15:39:20;1.38;;;1.33;;
64052;SDS011;50299;49.524;8.536;2023-04-12T15:41:48;1.13;;;1.13;;
64052;SDS011;50299;49.524;8.536;2023-04-12T15:44:15;1.58;;;1.27;;
64052;SDS011;50299;49.524;8.536;2023-04-12T15:46:41;1.05;;;1.05;;
64052;SDS011;50299;49.524;8.536;2023-04-12T15:49:09;0.73;;;0.73;;